Time;durP1;ratioP1;P1;durP2;ratioP2;P2;SDS_P1;SDS_P2;PMS_P1;PMS_P2;Temp;Humidity;BMP_temperature;BMP_pressure;BME280_temperature;BME280_humidity;BME280_pressure;Samples;Min_cycle;Max_cycle;Signal;HPM_P1;HPM_P2
2022/09/27 00:04:12;;;;;;;17.13;10.73;;;;;;;10.27;99.45;99260.30;5220042;56;1138952;-64
2022/09/27 00:09:19;;;;;;;17.87;11.47;;;;;;;10.35;99.12;99260.41;5186484;56;1141117;-66
2022/09/27 00:14:25;;;;;;;20.27;11.37;;;;;;;10.27;99.00;99258.49;5134119;56;1141477;-68
2022/09/27 00:19:30;;;;;;;22.47;10.80;;;;;;;10.33;99.92;99257.91;5134097;57;1141588;-66
2022/09/27 00:24:36;;;;;;;14.03;10.20;;;;;;;10.43;100.00;99240.66;5160935;56;1141090;-67
2022/09/27 00:29:43;;;;;;;14.13;10.20;;;;;;;10.52;100.00;99215.99;5219972;56;1143259;-68
2022/09/27 00:34:51;;;;;;;19.77;12.33;;;;;;;10.61;100.00;99207.15;5216369;56;1142992;-64
2022/09/27 00:39:57;;;;;;;18.07;11.37;;;;;;;10.55;100.00;99219.14;5151803;56;1143169;-66
2022/09/27 00:45:16;;;;;;;13.27;9.57;;;;;;;10.57;100.00;99209.25;5151759;56;1143173;-66
2022/09/27 00:50:29;;;;;;;13.13;10.43;;;;;;;10.69;100.00;99210.38;5156736;56;1141389;-68
2022/09/27 00:55:47;;;;;;;17.80;10.60;;;;;;;10.78;100.00;99201.02;5188500;56;1143130;-66
2022/09/27 01:00:58;;;;;;;12.67;10.27;;;;;;;10.82;100.00;99190.48;5219742;56;1143178;-69
2022/09/27 01:06:07;;;;;;;19.83;14.57;;;;;;;10.82;100.00;99181.23;5188323;56;1143208;-66
2022/09/27 01:11:29;;;;;;;19.90;15.20;;;;;;;10.83;100.00;99183.39;5160278;56;1143190;-67
2022/09/27 01:16:46;;;;;;;16.93;13.73;;;;;;;10.81;100.00;99172.13;5149938;56;1143192;-69
2022/09/27 01:22:05;;;;;;;16.07;12.50;;;;;;;10.85;100.00;99158.42;5151784;56;1143491;-67
2022/09/27 01:27:43;;;;;;;15.97;12.80;;;;;;;10.88;100.00;99146.70;5208485;56;1143377;-69
2022/09/27 01:32:58;;;;;;;18.57;15.25;;;;;;;10.90;100.00;99140.77;5219654;56;1141099;-69
2022/09/27 01:38:21;;;;;;;22.07;15.47;;;;;;;10.84;100.00;99134.30;5112142;56;1141231;-63
2022/09/27 01:43:40;;;;;;;25.23;15.13;;;;;;;10.80;100.00;99134.76;5130392;57;1141137;-67
2022/09/27 01:48:49;;;;;;;15.90;12.43;;;;;;;10.72;100.00;99126.25;4895016;59;1141065;-66
2022/09/27 01:54:01;;;;;;;19.80;14.00;;;;;;;10.62;100.00;99120.73;4955716;59;1139374;-70
2022/09/27 01:59:28;;;;;;;;;;;;;;;10.57;100.00;99134.40;4975086;59;1143308;-69
2022/09/27 02:04:38;;;;;;;17.57;14.00;;;;;;;10.39;100.00;99113.27;4987227;59;976341;-67
2022/09/27 02:09:53;;;;;;;16.73;12.70;;;;;;;10.28;100.00;99115.31;4983604;59;1141270;-69
2022/09/27 02:15:05;;;;;;;16.20;11.23;;;;;;;10.24;100.00;99106.85;4977636;59;1143323;-71
2022/09/27 02:20:29;;;;;;;19.23;12.70;;;;;;;10.13;100.00;99099.13;4943164;59;1143239;-66
2022/09/27 02:25:47;;;;;;;25.70;14.43;;;;;;;10.09;100.00;99103.88;5131215;56;1143198;-65
2022/09/27 02:30:54;;;;;;;22.50;14.37;;;;;;;10.10;100.00;99101.58;5222398;56;1143288;-67
2022/09/27 02:36:02;;;;;;;18.67;12.63;;;;;;;10.07;100.00;99099.26;5221236;55;1143303;-68
2022/09/27 02:41:20;;;;;;;17.87;12.83;;;;;;;9.99;100.00;99081.99;5194694;56;1143151;-72
2022/09/27 02:46:43;;;;;;;16.30;12.13;;;;;;;9.93;100.00;99073.86;5222294;56;1141094;-72
2022/09/27 02:52:28;;;;;;;21.23;13.67;;;;;;;9.92;100.00;99065.10;5188254;55;1141071;-72
2022/09/27 02:57:43;;;;;;;20.13;13.70;;;;;;;9.87;100.00;99058.94;5222621;56;1141100;-68
2022/09/27 03:03:19;;;;;;;19.57;13.83;;;;;;;9.83;100.00;99040.91;5220326;56;1138877;-67
2022/09/27 03:08:31;;;;;;;19.03;13.50;;;;;;;9.88;100.00;99030.73;5165445;56;1139040;-69
2022/09/27 03:13:37;;;;;;;16.67;12.63;;;;;;;9.93;100.00;99026.33;5187103;57;1139051;-70
2022/09/27 03:18:44;;;;;;;22.90;15.83;;;;;;;9.98;100.00;99022.72;5183808;57;1138941;-68
2022/09/27 03:24:07;;;;;;;;;;;;;;;10.03;100.00;99012.53;5198255;56;1139212;-67
2022/09/27 03:29:14;;;;;;;19.47;14.00;;;;;;;10.02;100.00;99014.84;5197180;56;974265;-66
2022/09/27 03:34:22;;;;;;;19.90;14.33;;;;;;;10.01;100.00;99006.08;5222571;56;1136978;-69
2022/09/27 03:39:28;;;;;;;21.90;15.50;;;;;;;10.03;100.00;99003.29;5187680;56;1139011;-66
2022/09/27 03:44:34;;;;;;;19.87;14.37;;;;;;;10.06;100.00;99001.19;5187119;57;1143157;-71
2022/09/27 03:49:42;;;;;;;20.00;14.75;;;;;;;10.14;100.00;98995.12;5187188;56;1143088;-69
2022/09/27 03:54:50;;;;;;;18.03;14.53;;;;;;;10.21;100.00;98982.51;5221408;56;1143125;-70
2022/09/27 03:59:58;;;;;;;22.67;16.73;;;;;;;10.28;100.00;98981.88;5222097;56;1143267;-66
2022/09/27 04:05:19;;;;;;;21.70;15.10;;;;;;;10.29;100.00;98971.16;5222109;56;1143096;-72
2022/09/27 04:10:26;;;;;;;27.60;16.10;;;;;;;10.33;100.00;98968.55;5196828;56;1143130;-68
2022/09/27 04:15:31;;;;;;;20.03;14.87;;;;;;;10.33;100.00;98975.64;5186453;57;1143150;-69
2022/09/27 04:20:55;;;;;;;22.42;17.17;;;;;;;10.32;100.00;98968.20;5186971;57;1143133;-67
2022/09/27 04:26:01;;;;;;;22.53;16.43;;;;;;;10.28;100.00;98954.95;5207381;56;1143153;-67
2022/09/27 04:31:17;;;;;;;21.33;16.40;;;;;;;10.29;100.00;98954.47;5220651;56;1143345;-67
2022/09/27 04:36:28;;;;;;;25.40;17.33;;;;;;;10.29;100.00;98941.25;5221663;56;1143202;-68
2022/09/27 04:41:39;;;;;;;21.33;16.20;;;;;;;10.32;100.00;98944.42;5222145;56;1143161;-69
2022/09/27 04:46:46;;;;;;;21.67;15.70;;;;;;;10.33;100.00;98942.61;5222000;56;1143148;-70
2022/09/27 04:51:53;;;;;;;22.77;16.33;;;;;;;10.36;100.00;98943.14;5188787;56;1143237;-69
2022/09/27 04:57:00;;;;;;;21.40;14.07;;;;;;;10.40;100.00;98946.27;5222203;56;1143108;-65
2022/09/27 05:02:06;;;;;;;18.60;15.05;;;;;;;10.40;100.00;98947.09;5221796;56;1143162;-67
2022/09/27 05:07:14;;;;;;;20.30;15.33;;;;;;;10.36;100.00;98943.63;5212314;56;1143154;-71
2022/09/27 05:12:24;;;;;;;23.17;16.10;;;;;;;10.32;100.00;98944.42;5164424;56;1143305;-70
2022/09/27 05:17:36;;;;;;;23.92;15.90;;;;;;;10.25;100.00;98936.77;5173691;56;1143127;-66
2022/09/27 05:22:59;;;;;;;24.23;17.13;;;;;;;10.18;100.00;98929.97;5046405;56;1143646;-67
2022/09/27 05:28:05;;;;;;;21.90;16.43;;;;;;;10.18;100.00;98937.03;5216218;55;1143135;-71
2022/09/27 05:33:11;;;;;;;23.90;16.33;;;;;;;10.18;100.00;98936.58;5219305;55;1143125;-68
2022/09/27 05:38:26;;;;;;;20.47;15.43;;;;;;;10.14;100.00;98928.58;5217223;56;1141223;-66
2022/09/27 05:43:35;;;;;;;22.67;15.87;;;;;;;10.19;100.00;98928.16;5218908;56;1141076;-70
2022/09/27 05:48:41;;;;;;;24.00;16.13;;;;;;;10.27;100.00;98924.23;5219926;56;1141015;-66
2022/09/27 05:53:47;;;;;;;23.27;17.33;;;;;;;10.40;100.00;98918.52;5220269;56;1141065;-70
2022/09/27 05:58:54;;;;;;;24.07;16.23;;;;;;;10.63;100.00;98922.78;5211306;55;1141160;-70
2022/09/27 06:04:02;;;;;;;22.87;17.30;;;;;;;10.78;100.00;98914.58;5209727;56;1141088;-67
2022/09/27 06:09:15;;;;;;;28.10;17.80;;;;;;;10.83;100.00;98917.59;5172192;56;1141182;-66
2022/09/27 06:14:23;;;;;;;27.10;17.03;;;;;;;10.77;100.00;98914.25;5184894;56;1141020;-68
2022/09/27 06:19:34;;;;;;;25.90;18.40;;;;;;;10.76;100.00;98924.48;5192468;56;1141289;-67
2022/09/27 06:24:40;;;;;;;29.97;18.57;;;;;;;10.72;100.00;98919.17;5194951;56;1140952;-66
2022/09/27 06:29:48;;;;;;;24.83;18.77;;;;;;;10.71;100.00;98931.56;5205685;56;1141131;-69
2022/09/27 06:34:56;;;;;;;28.13;18.20;;;;;;;10.74;100.00;98928.61;5200777;56;1139021;-71
2022/09/27 06:40:02;;;;;;;30.73;20.70;;;;;;;10.76;100.00;98931.92;5190863;56;1139007;-65
2022/09/27 06:45:26;;;;;;;29.00;20.60;;;;;;;10.74;100.00;98929.10;5171094;56;1143099;-67
2022/09/27 06:50:50;;;;;;;29.10;19.03;;;;;;;10.73;100.00;98938.84;5202518;56;1143253;-67
2022/09/27 06:56:01;;;;;;;32.50;18.77;;;;;;;10.75;100.00;98938.20;5160022;57;1143279;-69
2022/09/27 07:01:09;;;;;;;32.53;19.80;;;;;;;10.80;100.00;98939.89;5199840;57;1143312;-68
2022/09/27 07:06:33;;;;;;;27.40;19.23;;;;;;;10.86;100.00;98929.98;5194815;57;1143301;-69
2022/09/27 07:11:44;;;;;;;31.43;21.17;;;;;;;10.96;100.00;98940.45;5106796;56;1143207;-69
2022/09/27 07:16:50;;;;;;;27.77;18.90;;;;;;;11.01;100.00;98936.80;5136392;57;1143092;-65
2022/09/27 07:21:56;;;;;;;26.63;18.30;;;;;;;11.06;100.00;98943.78;5219115;56;1143080;-69
2022/09/27 07:27:02;;;;;;;30.17;18.97;;;;;;;11.15;100.00;98937.51;5218380;56;1143141;-67
2022/09/27 07:32:08;;;;;;;36.30;19.30;;;;;;;11.25;100.00;98937.39;5216783;56;1143147;-68
2022/09/27 07:37:16;;;;;;;27.40;18.97;;;;;;;11.28;100.00;98937.90;5203948;56;1143126;-67
2022/09/27 07:42:23;;;;;;;27.13;17.50;;;;;;;11.36;100.00;98938.89;5206662;56;1143059;-67
2022/09/27 07:47:31;;;;;;;27.80;19.27;;;;;;;11.43;100.00;98939.42;5216930;56;1143347;-72
2022/09/27 07:52:44;;;;;;;23.97;18.10;;;;;;;11.47;100.00;98927.48;5216729;56;1143046;-66
2022/09/27 07:58:11;;;;;;;28.60;17.77;;;;;;;11.61;100.00;98923.36;5205338;56;1143201;-70
2022/09/27 08:03:18;;;;;;;28.43;18.37;;;;;;;11.74;100.00;98926.37;5200304;56;1142963;-67
2022/09/27 08:08:27;;;;;;;31.13;18.83;;;;;;;11.87;100.00;98914.81;5205511;56;1143248;-69
2022/09/27 08:13:33;;;;;;;26.42;16.60;;;;;;;11.91;100.00;98918.80;5150406;57;1143315;-69
2022/09/27 08:18:39;;;;;;;25.23;16.40;;;;;;;11.96;100.00;98917.77;5155063;56;1143118;-70
2022/09/27 08:24:05;;;;;;;34.20;21.30;;;;;;;12.07;100.00;98899.90;4997120;58;1141044;-67
2022/09/27 08:29:12;;;;;;;24.63;17.83;;;;;;;12.08;100.00;98902.35;5096110;56;1141155;-70
2022/09/27 08:34:21;;;;;;;26.60;16.37;;;;;;;12.14;100.00;98902.19;5148541;56;1141018;-68
2022/09/27 08:39:27;;;;;;;23.12;17.17;;;;;;;12.20;100.00;98910.80;5206984;56;1141202;-70
2022/09/27 08:44:58;;;;;;;27.87;17.93;;;;;;;12.20;100.00;98906.33;5218356;56;1141341;-66
2022/09/27 08:50:30;;;;;;;26.07;16.43;;;;;;;12.24;100.00;98909.45;5195001;56;1141286;-66
2022/09/27 08:55:52;;;;;;;23.27;15.23;;;;;;;12.30;100.00;98910.11;5220508;56;1143121;-69
2022/09/27 09:01:09;;;;;;;22.03;14.03;;;;;;;12.30;100.00;98908.78;5214860;56;1143100;-67
2022/09/27 09:06:21;;;;;;;21.20;14.13;;;;;;;12.32;100.00;98906.30;5208998;56;1143112;-66
2022/09/27 09:18:09;;;;;;;52.10;22.57;;;;;;;12.38;100.00;98904.77;5205915;56;1143137;-67
2022/09/27 09:23:48;;;;;;;88.58;66.07;;;;;;;12.41;100.00;98899.14;5205852;56;1143179;-67
2022/09/27 09:29:11;;;;;;;86.40;58.27;;;;;;;12.49;100.00;98896.98;5206502;56;1143159;-69
2022/09/27 09:34:35;;;;;;;16.87;12.13;;;;;;;12.64;100.00;98897.42;5200229;56;1140342;-67
2022/09/27 09:39:54;;;;;;;22.90;12.63;;;;;;;12.72;100.00;98899.20;5204400;56;1141043;-71
2022/09/27 09:45:19;;;;;;;25.40;11.90;;;;;;;12.79;100.00;98902.00;5203344;56;1141311;-67
2022/09/27 09:50:32;;;;;;;27.20;16.83;;;;;;;12.86;100.00;98897.64;5205493;56;1140276;-71
2022/09/27 09:55:41;;;;;;;14.20;10.60;;;;;;;12.98;100.00;98894.45;5174293;56;1139266;-68
2022/09/27 10:00:53;;;;;;;19.80;15.80;;;;;;;13.19;100.00;98889.87;5210522;56;1143100;-71
2022/09/27 10:06:00;;;;;;;17.33;12.03;;;;;;;13.34;100.00;98889.44;5126696;56;1143051;-71
2022/09/27 10:11:09;;;;;;;21.12;12.43;;;;;;;13.48;100.00;98890.50;5213600;56;1143085;-70
2022/09/27 10:16:21;;;;;;;33.57;15.73;;;;;;;13.59;100.00;98887.45;5130137;56;1143353;-69
2022/09/27 10:21:30;;;;;;;18.37;13.77;;;;;;;13.66;100.00;98891.03;5204156;56;1143100;-69
2022/09/27 10:26:38;;;;;;;17.23;12.90;;;;;;;13.75;100.00;98894.44;5215565;56;1143482;-70
2022/09/27 10:31:49;;;;;;;16.17;11.37;;;;;;;14.07;100.00;98889.33;5216116;56;1143035;-69
2022/09/27 10:37:20;;;;;;;17.20;12.10;;;;;;;14.36;100.00;98888.03;5215402;56;1143437;-68
2022/09/27 10:42:34;;;;;;;14.40;9.97;;;;;;;14.41;100.00;98884.86;5207698;56;1143038;-69
2022/09/27 10:47:40;;;;;;;15.43;11.63;;;;;;;14.41;100.00;98880.87;5221327;56;1141124;-69
2022/09/27 10:52:49;;;;;;;16.63;12.00;;;;;;;14.38;100.00;98877.21;5219955;56;1143144;-71
2022/09/27 10:57:56;;;;;;;19.93;13.10;;;;;;;14.28;100.00;98870.02;5190468;56;1143294;-66
2022/09/27 11:03:15;;;;;;;31.00;17.67;;;;;;;14.16;100.00;98881.62;5205344;56;1143136;-68
2022/09/27 11:08:31;;;;;;;20.33;14.90;;;;;;;14.06;100.00;98885.84;5204227;56;1143454;-66
2022/09/27 11:13:39;;;;;;;24.97;16.40;;;;;;;13.98;100.00;98878.47;5219500;56;1143072;-70
2022/09/27 11:18:51;;;;;;;27.23;16.60;;;;;;;13.91;100.00;98877.02;5214220;56;1143241;-68
2022/09/27 11:24:19;;;;;;;44.10;23.43;;;;;;;13.90;100.00;98886.53;5172927;55;1143077;-70
2022/09/27 11:29:44;;;;;;;48.37;22.27;;;;;;;13.80;100.00;98876.13;5212439;56;1141032;-67
2022/09/27 11:35:16;;;;;;;30.13;17.30;;;;;;;13.71;100.00;98876.72;4964013;56;1141483;-69
2022/09/27 11:40:47;;;;;;;41.13;17.60;;;;;;;13.66;100.00;98876.42;5218832;56;1140990;-68
2022/09/27 11:46:03;;;;;;;24.33;13.47;;;;;;;13.68;100.00;98866.44;5215437;56;1141018;-67
2022/09/27 11:51:51;;;;;;;22.17;15.77;;;;;;;13.71;100.00;98853.31;5184202;56;1143366;-66
2022/09/27 11:57:17;;;;;;;25.27;16.20;;;;;;;13.67;100.00;98846.70;5212720;56;1143621;-70
2022/09/27 12:02:29;;;;;;;24.40;14.33;;;;;;;13.67;100.00;98846.70;5213516;55;1143345;-71
2022/09/27 12:08:04;;;;;;;26.07;15.33;;;;;;;13.68;100.00;98847.02;5216295;56;1142664;-70
2022/09/27 12:13:14;;;;;;;50.27;25.97;;;;;;;13.69;100.00;98838.88;5212615;56;1143596;-68
2022/09/27 12:18:43;;;;;;;20.57;15.80;;;;;;;13.73;100.00;98839.34;5214075;56;1143322;-69
2022/09/27 12:23:47;;;;;;;;;;;;;;;13.73;100.00;98840.17;5207211;56;1143308;-70
2022/09/27 12:29:08;;;;;;;21.23;13.93;;;;;;;13.73;100.00;98830.88;5198369;56;976210;-68
2022/09/27 12:34:26;;;;;;;19.83;14.73;;;;;;;13.76;100.00;98832.82;5198045;56;1141027;-67
2022/09/27 12:40:07;;;;;;;18.90;14.73;;;;;;;13.79;100.00;98821.34;5204040;56;1143407;-68
2022/09/27 12:45:16;;;;;;;18.27;13.70;;;;;;;13.82;100.00;98826.80;5214150;56;1140976;-68
2022/09/27 12:50:42;;;;;;;22.83;15.13;;;;;;;13.83;100.00;98818.65;5201015;56;1140976;-68
2022/09/27 12:56:11;;;;;;;16.27;12.73;;;;;;;13.82;100.00;98820.98;5212428;56;1141104;-67
2022/09/27 13:01:27;;;;;;;16.00;12.10;;;;;;;13.81;100.00;98811.86;5203996;56;1139046;-69
2022/09/27 13:07:04;;;;;;;12.30;9.63;;;;;;;13.82;100.00;98812.18;5212473;56;1143095;-67
2022/09/27 13:12:18;;;;;;;13.93;10.60;;;;;;;13.87;100.00;98809.31;5221815;56;1141109;-68
2022/09/27 13:17:43;;;;;;;14.93;10.95;;;;;;;13.87;100.00;98800.52;5212197;56;1143439;-69
2022/09/27 13:22:51;;;;;;;23.93;11.07;;;;;;;13.83;100.00;98807.19;5218231;56;1142990;-68
2022/09/27 13:28:30;;;;;;;19.50;11.27;;;;;;;13.79;100.00;98806.72;5218941;56;1143227;-69
2022/09/27 13:33:52;;;;;;;16.33;11.80;;;;;;;13.81;100.00;98798.57;5217887;56;1143159;-66
2022/09/27 13:39:14;;;;;;;18.47;12.70;;;;;;;13.80;100.00;98791.10;5212927;56;1143075;-68
2022/09/27 13:44:45;;;;;;;20.57;12.60;;;;;;;13.78;100.00;98790.95;5199558;56;1143450;-66
2022/09/27 13:49:55;;;;;;;23.20;15.47;;;;;;;13.75;100.00;98786.83;5061727;58;1143362;-67
2022/09/27 13:55:08;;;;;;;26.83;18.00;;;;;;;13.73;100.00;98771.59;5082701;58;1141405;-66
2022/09/27 14:00:30;;;;;;;22.42;15.58;;;;;;;13.67;100.00;98773.14;5048726;58;1141124;-67
2022/09/27 14:05:58;;;;;;;17.90;13.70;;;;;;;13.57;100.00;98770.42;5079554;58;1141228;-69
2022/09/27 14:11:13;;;;;;;26.17;14.40;;;;;;;13.52;100.00;98778.92;5078553;57;1141201;-67
2022/09/27 14:16:21;;;;;;;26.60;17.87;;;;;;;13.47;100.00;98779.95;5218980;56;1141060;-66
2022/09/27 14:21:34;;;;;;;23.70;14.03;;;;;;;13.45;100.00;98775.83;5221009;56;1141116;-71
2022/09/27 14:26:42;;;;;;;26.07;16.67;;;;;;;13.43;100.00;98781.84;5168281;56;1143064;-69
2022/09/27 14:32:04;;;;;;;17.57;12.30;;;;;;;13.43;100.00;98779.19;5201071;56;1143175;-69
2022/09/27 14:37:24;;;;;;;16.85;12.63;;;;;;;13.35;100.00;98782.22;5215641;56;1143114;-66
2022/09/27 14:42:36;;;;;;;20.00;11.83;;;;;;;13.25;100.00;98775.02;5215036;56;1143090;-67
2022/09/27 14:47:48;;;;;;;27.70;15.33;;;;;;;13.23;100.00;98772.21;5222674;56;1143189;-65
2022/09/27 14:52:58;;;;;;;29.40;20.67;;;;;;;13.19;100.00;98773.06;5222484;56;1143315;-69
2022/09/27 14:58:06;;;;;;;22.73;15.33;;;;;;;13.15;100.00;98761.64;5222439;56;1143144;-67
2022/09/27 15:03:27;;;;;;;24.53;15.73;;;;;;;13.15;100.00;98762.97;5196003;56;1143037;-69
2022/09/27 15:08:33;;;;;;;21.97;15.03;;;;;;;13.14;100.00;98761.32;5222448;56;1143069;-65
2022/09/27 15:13:41;;;;;;;24.47;17.73;;;;;;;13.09;100.00;98758.36;5222287;56;1143312;-65
2022/09/27 15:18:50;;;;;;;38.13;24.93;;;;;;;13.06;100.00;98762.69;5207629;56;1143111;-67
2022/09/27 15:23:57;;;;;;;18.60;13.30;;;;;;;13.05;100.00;98757.88;5205199;55;1143108;-69
2022/09/27 15:29:04;;;;;;;20.43;11.93;;;;;;;13.03;100.00;98758.56;5217153;55;1143124;-67
2022/09/27 15:34:15;;;;;;;20.77;15.23;;;;;;;13.00;100.00;98757.58;5222231;55;1143151;-67
2022/09/27 15:39:33;;;;;;;37.90;23.03;;;;;;;12.98;100.00;98765.75;5056538;57;1143095;-69
2022/09/27 15:44:56;;;;;;;28.63;16.90;;;;;;;12.94;100.00;98771.58;5222369;55;1143153;-64
2022/09/27 15:50:29;;;;;;;28.13;17.93;;;;;;;12.92;100.00;98766.44;5222531;55;1143322;-67
2022/09/27 15:55:40;;;;;;;29.30;18.43;;;;;;;12.90;100.00;98771.09;5209671;56;1141500;-64
2022/09/27 16:01:05;;;;;;;18.33;12.50;;;;;;;12.92;100.00;98778.88;5222745;56;1141081;-68
2022/09/27 16:06:14;;;;;;;22.87;13.47;;;;;;;12.90;100.00;98780.38;5216832;56;1141135;-69
2022/09/27 16:11:19;;;;;;;24.17;14.33;;;;;;;12.87;100.00;98777.25;5217873;55;1141248;-67
2022/09/27 16:16:25;;;;;;;17.67;13.17;;;;;;;12.80;100.00;98782.45;5219959;55;1141034;-70
2022/09/27 16:21:31;;;;;;;37.00;21.80;;;;;;;12.73;100.00;98777.50;5218237;55;1141044;-66
2022/09/27 16:26:37;;;;;;;33.07;18.20;;;;;;;12.70;100.00;98796.41;5217752;55;1141107;-66
2022/09/27 16:31:44;;;;;;;15.00;11.37;;;;;;;12.69;100.00;98796.09;5219697;55;1141059;-67
2022/09/27 16:36:52;;;;;;;23.73;14.03;;;;;;;12.65;100.00;98791.66;5214583;55;1141093;-69
2022/09/27 16:41:59;;;;;;;27.23;17.00;;;;;;;12.66;100.00;98786.67;5220031;55;1139032;-68
2022/09/27 16:47:06;;;;;;;21.33;14.00;;;;;;;12.61;100.00;98790.34;5219879;55;1139192;-66
2022/09/27 16:52:11;;;;;;;19.37;10.50;;;;;;;12.49;100.00;98769.70;5219886;56;1143123;-69
2022/09/27 16:57:17;;;;;;;16.87;11.20;;;;;;;12.54;100.00;98783.23;5213955;56;1143151;-65
2022/09/27 17:02:23;;;;;;;19.90;11.33;;;;;;;12.50;100.00;98772.68;5165686;55;1143089;-66
2022/09/27 17:07:29;;;;;;;32.17;15.30;;;;;;;12.44;100.00;98772.03;5211467;56;1143156;-65
2022/09/27 17:12:35;;;;;;;20.47;11.47;;;;;;;12.40;100.00;98777.34;5154982;56;1143174;-66
2022/09/27 17:17:41;;;;;;;21.90;12.27;;;;;;;12.37;100.00;98779.88;5208946;55;1143182;-68
2022/09/27 17:22:46;;;;;;;27.90;12.30;;;;;;;12.40;100.00;98776.02;5218309;55;1143085;-66
2022/09/27 17:27:52;;;;;;;17.43;12.93;;;;;;;12.39;100.00;98774.37;5219834;55;1143111;-66
2022/09/27 17:32:58;;;;;;;18.53;12.03;;;;;;;12.36;100.00;98779.55;5219829;55;1143139;-68
2022/09/27 17:38:04;;;;;;;16.47;10.13;;;;;;;12.33;100.00;98778.55;5172614;56;1143144;-69
2022/09/27 17:43:09;;;;;;;63.73;24.53;;;;;;;12.36;100.00;98785.34;5151813;56;1143231;-68
2022/09/27 17:53:39;;;;;;;18.53;10.83;;;;;;;12.29;100.00;98796.63;5208592;56;1143081;-68
2022/09/27 17:58:50;;;;;;;27.03;14.60;;;;;;;12.30;100.00;98790.82;5192060;56;1143390;-67
2022/09/27 18:03:58;;;;;;;23.30;13.73;;;;;;;12.31;100.00;98797.78;5133938;57;1143114;-65
2022/09/27 18:09:05;;;;;;;30.90;18.20;;;;;;;12.27;100.00;98807.89;5171113;56;1143200;-70
2022/09/27 18:14:11;;;;;;;29.17;16.20;;;;;;;12.23;100.00;98813.20;5219557;55;1143131;-67
2022/09/27 18:19:18;;;;;;;15.47;9.87;;;;;;;12.18;100.00;98823.51;5219839;55;1143168;-68
2022/09/27 18:24:25;;;;;;;24.80;14.85;;;;;;;12.11;100.00;98830.47;5214389;55;1141039;-70
2022/09/27 18:29:30;;;;;;;12.07;6.33;;;;;;;12.04;100.00;98833.48;5218929;55;1143314;-68
2022/09/27 18:34:38;;;;;;;7.20;4.73;;;;;;;11.91;100.00;98839.31;5221823;56;1141017;-70
2022/09/27 18:39:43;;;;;;;7.70;3.60;;;;;;;11.81;100.00;98845.77;5192208;55;1139004;-71
2022/09/27 18:44:50;;;;;;;2.80;2.60;;;;;;;11.77;100.00;98851.06;5220460;55;1138965;-67
2022/09/27 18:49:57;;;;;;;4.23;2.77;;;;;;;11.70;100.00;98860.16;5219017;56;1138891;-67
2022/09/27 18:55:03;;;;;;;3.30;2.40;;;;;;;11.64;100.00;98856.34;5220326;55;1139175;-68
2022/09/27 19:00:10;;;;;;;2.90;2.25;;;;;;;11.61;100.00;98861.97;5160521;56;1138962;-67
2022/09/27 19:05:16;;;;;;;2.43;2.23;;;;;;;11.56;100.00;98856.86;5156353;55;1138966;-65
2022/09/27 19:10:21;;;;;;;3.07;2.03;;;;;;;11.54;100.00;98856.19;5172508;56;1138993;-66
2022/09/27 19:15:27;;;;;;;3.83;2.57;;;;;;;11.53;100.00;98854.03;5152317;56;1138958;-65
2022/09/27 19:20:36;;;;;;;8.87;3.10;;;;;;;11.57;100.00;98854.54;5152474;56;1139139;-68
2022/09/27 19:25:42;;;;;;;2.60;2.40;;;;;;;11.55;100.00;98856.02;5172256;56;1138988;-67
2022/09/27 19:30:48;;;;;;;5.17;3.33;;;;;;;11.52;100.00;98862.97;5219935;55;1138994;-68
2022/09/27 19:35:58;;;;;;;4.37;2.50;;;;;;;11.51;100.00;98861.31;5202062;55;1139000;-66
2022/09/27 19:41:07;;;;;;;3.27;2.93;;;;;;;11.53;100.00;98854.03;5151595;56;1139084;-69
2022/09/27 19:46:16;;;;;;;9.43;5.33;;;;;;;11.49;100.00;98869.08;5215121;55;1136804;-66
2022/09/27 19:51:24;;;;;;;6.43;4.37;;;;;;;11.49;100.00;98875.70;5229297;56;1136872;-69
2022/09/27 19:56:31;;;;;;;5.43;3.90;;;;;;;11.51;100.00;98879.84;5222129;56;1136869;-67
2022/09/27 20:01:40;;;;;;;7.13;3.60;;;;;;;11.52;100.00;98874.05;5196820;56;1137056;-67
2022/09/27 20:06:46;;;;;;;5.93;3.87;;;;;;;11.50;100.00;98883.98;5194769;56;1137002;-69
2022/09/27 20:11:52;;;;;;;5.23;3.40;;;;;;;11.47;100.00;98885.63;5188183;56;1136928;-66
2022/09/27 20:16:58;;;;;;;5.57;3.73;;;;;;;11.40;100.00;98886.80;5182443;56;1136885;-66
2022/09/27 20:22:04;;;;;;;4.80;3.03;;;;;;;11.38;100.00;98884.80;5192082;56;1137495;-67
2022/09/27 20:27:09;;;;;;;5.43;4.27;;;;;;;11.35;100.00;98884.30;5183713;56;1136917;-66
2022/09/27 20:32:15;;;;;;;9.97;4.13;;;;;;;11.33;100.00;98883.63;5219063;56;1136738;-67
2022/09/27 20:37:20;;;;;;;6.30;3.50;;;;;;;11.24;100.00;98866.92;5188387;56;1136818;-66
2022/09/27 20:42:26;;;;;;;6.53;3.60;;;;;;;11.24;100.00;98866.92;5164223;56;1136899;-67
2022/09/27 20:47:32;;;;;;;6.10;4.60;;;;;;;11.28;100.00;98882.33;5160717;56;1136911;-71
2022/09/27 20:52:38;;;;;;;6.53;4.60;;;;;;;11.27;100.00;98885.95;5148844;56;1136994;-67
2022/09/27 20:57:44;;;;;;;7.00;5.13;;;;;;;11.28;100.00;98889.43;5209430;56;1137153;-66
2022/09/27 21:02:50;;;;;;;4.97;4.37;;;;;;;11.33;100.00;98889.75;5163762;56;1136911;-66
2022/09/27 21:07:56;;;;;;;7.33;4.50;;;;;;;11.32;100.00;98881.97;5175563;56;1134810;-65
2022/09/27 21:13:02;;;;;;;6.03;4.50;;;;;;;11.34;100.00;98886.61;5239404;56;21161;-66
2022/09/27 21:18:09;;;;;;;4.83;4.43;;;;;;;11.34;100.00;98890.08;5220040;56;1134683;-66
2022/09/27 21:23:15;;;;;;;7.10;4.73;;;;;;;11.33;100.00;98882.30;5219580;56;1138988;-71
2022/09/27 21:28:20;;;;;;;9.13;5.07;;;;;;;11.31;100.00;98887.76;5219300;56;1139122;-69
2022/09/27 21:33:27;;;;;;;8.67;5.30;;;;;;;11.28;100.00;98888.11;5219110;56;1139018;-70
2022/09/27 21:38:34;;;;;;;6.33;4.80;;;;;;;11.22;100.00;98896.69;5164887;56;1138987;-71
2022/09/27 21:43:40;;;;;;;9.57;5.70;;;;;;;11.20;100.00;98894.20;5150078;56;1138873;-67
2022/09/27 21:48:49;;;;;;;6.03;4.47;;;;;;;11.19;100.00;98888.57;5134028;57;1138939;-68
2022/09/27 21:54:01;;;;;;;7.60;4.50;;;;;;;11.20;100.00;98892.05;5201351;56;1138994;-68
2022/09/27 21:59:11;;;;;;;8.43;3.90;;;;;;;11.16;100.00;98898.16;5194414;56;1139024;-65
2022/09/27 22:04:17;;;;;;;5.43;3.60;;;;;;;11.19;100.00;98901.80;5164158;56;1139019;-67
2022/09/27 22:09:23;;;;;;;3.65;3.35;;;;;;;11.20;100.00;98900.81;5192503;56;1138987;-67
2022/09/27 22:14:29;;;;;;;4.60;3.73;;;;;;;11.21;100.00;98903.80;5220456;56;1139232;-65
2022/09/27 22:19:34;;;;;;;6.37;4.30;;;;;;;11.19;100.00;98907.09;5220308;56;1139019;-66
2022/09/27 22:24:40;;;;;;;5.40;3.70;;;;;;;11.18;100.00;98901.47;5189586;56;1139114;-68
2022/09/27 22:29:46;;;;;;;5.90;4.20;;;;;;;11.19;100.00;98896.52;5220268;56;1139037;-69
2022/09/27 22:34:52;;;;;;;5.60;3.73;;;;;;;11.17;100.00;98899.81;5217603;56;1138955;-67
2022/09/27 22:39:58;;;;;;;4.60;3.40;;;;;;;11.17;100.00;98898.98;5161439;56;1138983;-67
2022/09/27 22:45:05;;;;;;;4.93;4.43;;;;;;;11.11;100.00;98896.52;5134677;57;1139209;-70
2022/09/27 22:50:12;;;;;;;5.80;4.63;;;;;;;11.05;100.00;98905.08;5137754;56;1139019;-68
2022/09/27 22:55:18;;;;;;;5.30;3.90;;;;;;;11.03;100.00;98903.58;5220511;56;1138886;-67
2022/09/27 23:00:25;;;;;;;4.13;3.83;;;;;;;10.99;100.00;98903.09;5180532;56;1138980;-68
2022/09/27 23:05:31;;;;;;;4.30;3.43;;;;;;;11.01;100.00;98901.09;5164775;56;1138980;-67
2022/09/27 23:10:37;;;;;;;4.00;3.60;;;;;;;11.03;100.00;98893.00;5206697;56;1139199;-64
2022/09/27 23:15:43;;;;;;;4.20;3.55;;;;;;;11.07;100.00;98900.46;5220090;56;1139053;-66
2022/09/27 23:20:49;;;;;;;9.70;3.90;;;;;;;11.07;100.00;98892.52;5222323;56;1139038;-71
2022/09/27 23:26:04;;;;;;;2.73;2.57;;;;;;;11.07;100.00;98900.95;5222475;56;1139237;-67
2022/09/27 23:31:15;;;;;;;3.43;3.13;;;;;;;10.97;100.00;98897.63;5222860;56;1139270;-66